Time;durP1;ratioP1;P1;durP2;ratioP2;P2;SDS_P1;SDS_P2;PMS_P1;PMS_P2;Temp;Humidity;BMP_temperature;BMP_pressure;BME280_temperature;BME280_humidity;BME280_pressure;Samples;Min_cycle;Max_cycle;Signal;HPM_P1;HPM_P2
2022/06/05 00:00:43;;;;;;;8.52;7.75;;;;;;;18.88;77.51;100553.31;5050029;28;20099;-71
2022/06/05 00:03:25;;;;;;;9.00;7.97;;;;;;;18.84;77.51;100541.97;5043630;28;20053;-72
2022/06/05 00:06:13;;;;;;;8.88;8.07;;;;;;;18.79;77.58;100533.41;5037347;28;20171;-71
2022/06/05 00:09:01;;;;;;;9.20;8.13;;;;;;;18.80;77.98;100539.63;5044808;28;20060;-70
2022/06/05 00:11:36;;;;;;;8.63;7.82;;;;;;;18.67;77.97;100526.34;5051581;28;20489;-72
2022/06/05 00:14:04;;;;;;;8.52;7.82;;;;;;;18.70;78.11;100541.34;5054631;28;20106;-70
2022/06/05 00:16:30;;;;;;;9.05;8.25;;;;;;;18.67;78.27;100554.97;5048383;28;20129;-72
2022/06/05 00:18:57;;;;;;;8.63;7.90;;;;;;;18.51;78.88;100540.06;5047355;28;20080;-71
2022/06/05 00:21:24;;;;;;;8.75;7.95;;;;;;;18.52;78.94;100528.34;5049936;28;20095;-71
2022/06/05 00:23:52;;;;;;;9.25;8.35;;;;;;;18.65;78.92;100552.41;5048138;28;20057;-73
2022/06/05 00:26:40;;;;;;;8.43;7.72;;;;;;;18.66;78.79;100550.59;5057817;28;20380;-72
2022/06/05 00:29:32;;;;;;;9.50;8.65;;;;;;;18.66;78.92;100548.75;5053055;28;20493;-71
2022/06/05 00:32:18;;;;;;;8.98;8.20;;;;;;;18.60;78.84;100541.19;5057458;28;20461;-71
2022/06/05 00:34:47;;;;;;;9.23;8.43;;;;;;;18.52;78.97;100538.22;5048549;28;20075;-72
2022/06/05 00:37:29;;;;;;;9.70;8.90;;;;;;;18.58;79.30;100557.41;5050223;28;20133;-71
2022/06/05 00:40:32;;;;;;;9.95;8.88;;;;;;;18.50;79.56;100567.84;5046053;28;20049;-71
2022/06/05 00:43:01;;;;;;;9.00;8.20;;;;;;;18.50;79.71;100562.47;5021037;28;20073;-71
2022/06/05 00:45:30;;;;;;;9.15;8.23;;;;;;;18.49;79.27;100555.41;5048921;28;20684;-74
2022/06/05 00:47:57;;;;;;;8.90;8.07;;;;;;;18.46;79.67;100544.91;5057695;28;20484;-73
2022/06/05 00:50:27;;;;;;;9.13;8.32;;;;;;;18.51;79.55;100545.41;5050862;28;20503;-70
2022/06/05 00:52:58;;;;;;;10.15;9.15;;;;;;;18.49;79.43;100554.56;5057006;28;20060;-75
2022/06/05 00:55:28;;;;;;;9.40;8.55;;;;;;;18.42;79.71;100550.63;5054236;28;20435;-70
2022/06/05 00:57:56;;;;;;;9.93;9.10;;;;;;;18.35;79.62;100550.25;5050650;28;20107;-72
2022/06/05 01:00:25;;;;;;;9.88;9.02;;;;;;;18.26;80.17;100560.84;5050626;28;20401;-70
2022/06/05 01:02:55;;;;;;;9.25;8.55;;;;;;;18.15;80.33;100553.59;5051985;28;20049;-70
2022/06/05 01:05:25;;;;;;;9.18;8.38;;;;;;;18.22;80.80;100560.22;5050162;28;20057;-71
2022/06/05 01:07:52;;;;;;;10.55;9.65;;;;;;;18.18;81.29;100553.38;5049457;28;20068;-71
2022/06/05 01:10:22;;;;;;;9.35;8.65;;;;;;;18.25;80.89;100562.66;5048869;28;20065;-71
2022/06/05 01:13:12;;;;;;;11.13;8.80;;;;;;;18.28;80.71;100558.88;5045201;28;20073;-71
2022/06/05 01:16:14;;;;;;;9.45;8.55;;;;;;;18.22;80.53;100562.88;5046872;28;20045;-70
2022/06/05 01:19:06;;;;;;;9.27;8.48;;;;;;;18.17;80.79;100567.75;5044594;28;20045;-73
2022/06/05 01:21:57;;;;;;;9.20;8.45;;;;;;;18.13;81.17;100556.38;5051042;28;20063;-68
2022/06/05 01:24:38;;;;;;;9.50;8.60;;;;;;;17.98;81.02;100536.09;5046251;28;20068;-70
2022/06/05 01:27:10;;;;;;;8.85;8.13;;;;;;;18.06;81.00;100547.13;5047873;28;20605;-70
2022/06/05 01:29:51;;;;;;;9.73;8.93;;;;;;;18.09;80.77;100543.34;5050762;28;20511;-70
2022/06/05 01:32:36;;;;;;;9.48;8.32;;;;;;;18.08;80.92;100547.00;5051160;28;20045;-74
2022/06/05 01:35:19;;;;;;;8.80;8.10;;;;;;;17.96;80.89;100523.78;5048389;28;20123;-71
2022/06/05 01:37:54;;;;;;;9.02;8.23;;;;;;;18.10;81.05;100543.22;5047810;28;20414;-72
2022/06/05 01:40:34;;;;;;;9.38;8.48;;;;;;;18.11;80.89;100530.66;5053935;28;20572;-72
2022/06/05 01:43:07;;;;;;;9.68;8.77;;;;;;;18.04;80.77;100514.22;5051277;28;20373;-71
2022/06/05 01:45:44;;;;;;;9.15;8.27;;;;;;;17.99;80.67;100504.81;5046464;28;20110;-71
2022/06/05 01:48:32;;;;;;;9.52;8.68;;;;;;;18.01;80.86;100497.50;5051852;28;20049;-71
2022/06/05 01:51:06;;;;;;;9.70;8.90;;;;;;;18.03;81.08;100499.13;5048782;28;20709;-71
2022/06/05 01:53:39;;;;;;;9.27;8.48;;;;;;;17.95;81.26;100482.75;5050248;28;20049;-71
2022/06/05 01:56:14;;;;;;;9.55;8.65;;;;;;;18.01;81.00;100474.25;5048488;28;20058;-70
2022/06/05 01:58:44;;;;;;;10.05;9.05;;;;;;;17.98;81.11;100477.16;5044049;28;20143;-72
2022/06/05 02:01:17;;;;;;;9.90;9.00;;;;;;;17.83;80.92;100451.53;5048609;28;20045;-72
2022/06/05 02:03:48;;;;;;;10.38;9.13;;;;;;;17.81;80.73;100445.44;5050821;28;20052;-71
2022/06/05 02:06:22;;;;;;;9.73;8.82;;;;;;;17.77;81.27;100444.00;5048564;28;20511;-71
2022/06/05 02:08:58;;;;;;;9.55;8.75;;;;;;;17.84;81.72;100454.09;5051190;28;20037;-71
2022/06/05 02:11:28;;;;;;;9.38;8.48;;;;;;;17.87;81.43;100440.47;5051219;28;20049;-71
2022/06/05 02:14:00;;;;;;;9.73;8.82;;;;;;;17.81;81.01;100411.47;5046294;28;20049;-71
2022/06/05 02:16:29;;;;;;;9.18;8.38;;;;;;;17.94;80.99;100402.53;5046663;28;20091;-71
2022/06/05 02:19:02;;;;;;;10.60;9.32;;;;;;;17.91;80.43;100400.94;5045070;28;20467;-70
2022/06/05 02:21:29;;;;;;;10.25;9.25;;;;;;;17.90;81.02;100384.97;5046509;28;20056;-71
2022/06/05 02:23:56;;;;;;;10.07;9.10;;;;;;;17.88;80.72;100383.25;5045805;28;21902;-71
2022/06/05 02:26:23;;;;;;;9.77;8.82;;;;;;;17.89;80.93;100370.72;5058637;28;20163;-73
2022/06/05 02:28:50;;;;;;;9.80;9.00;;;;;;;17.84;80.58;100349.63;5045304;28;20077;-72
2022/06/05 02:31:35;;;;;;;10.23;8.98;;;;;;;17.95;80.41;100353.28;5045962;28;20081;-72
2022/06/05 02:34:19;;;;;;;10.63;9.60;;;;;;;17.90;80.23;100353.69;5043771;28;20061;-72
2022/06/05 02:37:10;;;;;;;10.45;9.45;;;;;;;17.80;80.68;100326.72;5049024;28;20049;-72
2022/06/05 02:40:02;;;;;;;10.15;9.10;;;;;;;17.80;80.79;100321.38;5047823;28;20435;-70
2022/06/05 02:42:33;;;;;;;9.93;8.93;;;;;;;17.78;81.15;100309.09;5048591;28;20524;-72
2022/06/05 02:45:12;;;;;;;9.77;8.88;;;;;;;17.75;80.89;100287.91;5047972;28;20076;-71
2022/06/05 02:48:05;;;;;;;10.10;9.27;;;;;;;17.60;81.87;100259.63;5033115;28;20045;-71
2022/06/05 02:50:44;;;;;;;9.98;9.07;;;;;;;17.64;81.49;100264.63;5032974;28;20582;-71
2022/06/05 02:53:13;;;;;;;10.75;9.75;;;;;;;17.49;81.82;100247.03;5051370;28;20482;-71
2022/06/05 02:55:40;;;;;;;9.90;9.00;;;;;;;17.58;82.04;100274.94;5045331;28;20075;-70
2022/06/05 02:58:07;;;;;;;11.18;9.98;;;;;;;17.56;82.26;100272.38;5046611;28;20048;-75
2022/06/05 03:00:38;;;;;;;10.07;9.18;;;;;;;17.53;82.24;100272.63;5051677;28;20049;-70
2022/06/05 03:05:51;;;;;;;13.00;9.80;;;;;;;17.50;82.46;100272.84;5049704;28;19936;-71
2022/06/05 03:08:19;;;;;;;10.57;9.20;;;;;;;17.48;82.48;100264.09;5045452;28;20119;-70
2022/06/05 03:10:46;;;;;;;9.45;8.65;;;;;;;17.52;82.47;100273.59;5049555;28;20064;-71
2022/06/05 03:13:14;;;;;;;10.23;9.27;;;;;;;17.54;82.32;100267.16;5044024;28;20049;-72
2022/06/05 03:15:41;;;;;;;10.48;9.57;;;;;;;17.56;82.05;100266.19;5049721;28;20069;-71
2022/06/05 03:18:11;;;;;;;11.02;9.88;;;;;;;17.54;82.00;100258.25;5030650;28;20053;-71
2022/06/05 03:20:38;;;;;;;10.68;9.65;;;;;;;17.62;81.67;100260.34;5044580;28;20409;-72
2022/06/05 03:23:09;;;;;;;9.93;9.02;;;;;;;17.56;81.48;100232.22;5046442;28;20065;-72
2022/06/05 03:25:39;;;;;;;11.30;10.30;;;;;;;17.60;80.96;100259.63;5047083;28;20132;-71
2022/06/05 03:28:07;;;;;;;10.43;9.52;;;;;;;17.59;81.41;100253.41;5046662;28;20049;-73
2022/06/05 03:30:39;;;;;;;10.02;9.00;;;;;;;17.66;81.16;100275.22;5053131;28;20376;-70
2022/06/05 03:33:06;;;;;;;11.88;9.38;;;;;;;17.63;80.73;100278.94;5045775;28;20131;-71
2022/06/05 03:35:42;;;;;;;10.50;9.60;;;;;;;17.59;81.11;100290.03;5048894;28;20400;-72
2022/06/05 03:38:11;;;;;;;10.38;9.48;;;;;;;17.56;81.14;100288.44;5050991;28;20045;-70
2022/06/05 03:40:42;;;;;;;11.02;9.23;;;;;;;17.41;81.27;100273.56;5047522;28;20485;-72
2022/06/05 03:43:09;;;;;;;11.60;9.35;;;;;;;17.49;81.29;100287.22;5049950;28;20311;-71
2022/06/05 03:45:36;;;;;;;10.35;9.45;;;;;;;17.56;80.83;100299.16;5052535;28;20053;-73
2022/06/05 03:48:03;;;;;;;11.27;9.98;;;;;;;17.57;80.80;100308.91;5046184;28;20080;-71
2022/06/05 03:50:31;;;;;;;12.57;9.57;;;;;;;17.53;80.78;100316.31;5052662;28;20099;-73
2022/06/05 03:52:58;;;;;;;10.82;9.75;;;;;;;17.46;81.03;100316.91;5052777;28;20049;-71
2022/06/05 03:55:25;;;;;;;11.27;10.27;;;;;;;17.46;81.27;100335.66;5049724;28;20049;-72
2022/06/05 03:57:52;;;;;;;13.68;10.45;;;;;;;17.40;80.93;100334.28;5048384;28;20525;-72
2022/06/05 04:00:21;;;;;;;12.85;9.85;;;;;;;17.36;81.44;100334.63;5048899;28;20124;-71
2022/06/05 04:02:47;;;;;;;11.23;10.18;;;;;;;17.33;81.63;100321.47;5050153;28;20082;-72
2022/06/05 04:05:17;;;;;;;11.32;9.85;;;;;;;17.22;81.30;100298.22;5050103;28;20052;-71
2022/06/05 04:07:44;;;;;;;11.25;10.15;;;;;;;17.36;81.11;100318.56;5048258;28;20501;-71
2022/06/05 04:10:13;;;;;;;10.25;9.25;;;;;;;17.35;81.12;100316.84;5049284;28;20171;-73
2022/06/05 04:12:40;;;;;;;11.35;10.25;;;;;;;17.31;81.34;100310.91;5047390;28;20045;-71
2022/06/05 04:15:07;;;;;;;12.23;10.63;;;;;;;17.25;81.30;100307.84;5046919;28;20091;-71
2022/06/05 04:17:34;;;;;;;11.30;10.27;;;;;;;17.27;81.48;100308.56;5051160;28;20139;-73
2022/06/05 04:20:02;;;;;;;11.73;10.52;;;;;;;17.33;81.40;100321.47;5048215;28;20080;-71
2022/06/05 04:22:29;;;;;;;10.70;9.70;;;;;;;17.31;81.41;100318.94;5050119;28;20053;-73
2022/06/05 04:24:56;;;;;;;10.50;9.60;;;;;;;17.33;81.63;100329.50;5047252;28;20067;-71
2022/06/05 04:27:22;;;;;;;12.40;9.63;;;;;;;17.38;81.65;100362.13;5047874;28;20127;-70
2022/06/05 04:29:49;;;;;;;10.85;9.80;;;;;;;17.39;81.50;100387.94;5048629;28;20103;-72
2022/06/05 04:32:16;;;;;;;12.43;11.18;;;;;;;17.41;81.29;100396.72;5044286;28;20049;-71
2022/06/05 04:34:42;;;;;;;11.88;10.25;;;;;;;17.41;81.67;100396.72;5051531;28;20135;-71
2022/06/05 04:37:09;;;;;;;11.60;10.18;;;;;;;17.42;81.96;100398.41;5051752;28;20393;-73
2022/06/05 04:39:36;;;;;;;10.75;9.75;;;;;;;17.49;81.13;100405.00;5048000;28;20464;-74
2022/06/05 04:42:03;;;;;;;10.05;9.05;;;;;;;17.39;81.19;100386.13;5044616;28;20049;-72
2022/06/05 04:44:29;;;;;;;12.43;10.30;;;;;;;17.57;80.85;100413.31;5046480;28;20061;-72
2022/06/05 04:46:56;;;;;;;10.82;9.90;;;;;;;17.52;81.07;100416.34;5048787;28;20099;-70
2022/06/05 04:49:26;;;;;;;10.80;9.70;;;;;;;17.56;80.97;100422.31;5047466;28;20105;-71
2022/06/05 04:51:52;;;;;;;10.80;9.83;;;;;;;17.59;81.04;100430.13;5049047;28;20098;-70
2022/06/05 04:54:19;;;;;;;11.27;10.27;;;;;;;17.60;81.29;100429.16;5047890;28;20135;-72
2022/06/05 04:56:46;;;;;;;11.40;10.40;;;;;;;17.61;80.90;100424.66;5049250;28;20095;-73
2022/06/05 04:59:13;;;;;;;11.07;10.02;;;;;;;17.44;80.59;100400.03;5046543;28;21184;-73
2022/06/05 05:01:40;;;;;;;11.15;10.15;;;;;;;17.59;80.41;100416.75;5043515;28;20041;-71
2022/06/05 05:04:11;;;;;;;11.35;10.23;;;;;;;17.55;80.14;100409.91;5046823;28;20386;-71
2022/06/05 05:06:39;;;;;;;11.68;10.63;;;;;;;17.63;80.32;100412.84;5048978;28;20076;-70
2022/06/05 05:09:06;;;;;;;10.63;9.63;;;;;;;17.66;80.50;100425.19;5042166;28;21906;-72
2022/06/05 05:11:33;;;;;;;9.60;8.77;;;;;;;17.70;80.57;100435.56;5029552;28;20485;-69
2022/06/05 05:14:00;;;;;;;10.95;8.60;;;;;;;17.76;80.54;100432.41;5045139;28;20057;-71
2022/06/05 05:16:29;;;;;;;10.80;9.73;;;;;;;17.84;80.37;100429.13;5047161;28;20037;-71
2022/06/05 05:19:04;;;;;;;9.00;8.20;;;;;;;17.90;79.92;100436.72;5045408;28;20095;-72
2022/06/05 05:21:31;;;;;;;10.27;9.20;;;;;;;18.00;79.69;100426.13;5048789;28;20048;-72
2022/06/05 05:23:58;;;;;;;10.27;9.25;;;;;;;18.10;79.03;100421.78;5048742;28;20049;-71
2022/06/05 05:26:35;;;;;;;11.13;9.98;;;;;;;18.06;78.65;100396.19;5046031;28;20443;-72
2022/06/05 05:29:03;;;;;;;13.63;10.93;;;;;;;18.22;77.56;100404.75;5047289;28;20524;-71
2022/06/05 05:31:32;;;;;;;11.23;10.13;;;;;;;18.20;77.42;100396.81;5051175;28;20357;-70
2022/06/05 05:34:00;;;;;;;10.98;9.98;;;;;;;18.21;77.71;100386.97;5047987;28;20056;-73
2022/06/05 05:36:27;;;;;;;11.30;9.20;;;;;;;18.25;77.58;100377.72;5050506;28;20040;-71
2022/06/05 05:44:40;;;;;;;10.15;9.25;;;;;;;18.39;77.91;100361.38;5047189;28;20814;-71
2022/06/05 05:47:11;;;;;;;9.00;8.30;;;;;;;18.57;77.54;100380.50;5053053;28;20041;-70
2022/06/05 05:49:37;;;;;;;10.10;9.20;;;;;;;18.64;77.51;100372.84;5049088;28;20052;-70
2022/06/05 05:52:05;;;;;;;9.70;8.90;;;;;;;18.73;77.18;100369.44;5046596;28;20045;-72
2022/06/05 05:54:33;;;;;;;9.43;8.52;;;;;;;18.83;77.04;100375.72;5045668;28;20548;-71
2022/06/05 05:56:59;;;;;;;9.32;8.50;;;;;;;18.94;76.91;100370.34;5048477;28;20509;-74
2022/06/05 05:59:26;;;;;;;9.25;8.45;;;;;;;18.97;75.76;100364.72;5046501;28;20037;-71
2022/06/05 06:01:53;;;;;;;9.57;8.77;;;;;;;19.07;75.41;100372.84;5050973;28;20719;-71
2022/06/05 06:04:19;;;;;;;9.80;8.80;;;;;;;19.12;75.05;100371.50;5045767;28;20052;-70
2022/06/05 06:06:49;;;;;;;9.63;8.73;;;;;;;19.14;75.03;100374.91;5046595;28;20076;-71
2022/06/05 06:09:16;;;;;;;9.95;9.05;;;;;;;19.09;75.39;100352.97;5042800;28;20057;-71
2022/06/05 06:11:43;;;;;;;10.45;8.52;;;;;;;19.12;76.44;100349.19;5047021;28;20128;-72
2022/06/05 06:14:10;;;;;;;10.32;9.32;;;;;;;19.15;77.13;100339.03;5047039;28;20057;-72
2022/06/05 06:16:37;;;;;;;10.27;9.27;;;;;;;19.10;78.10;100302.81;5046414;28;20049;-72
2022/06/05 06:19:04;;;;;;;10.35;9.45;;;;;;;19.03;79.57;100297.13;5044781;28;20102;-73
2022/06/05 06:21:31;;;;;;;12.13;10.13;;;;;;;18.97;80.41;100297.63;5047189;28;20065;-70
2022/06/05 06:24:01;;;;;;;11.48;10.30;;;;;;;18.90;81.49;100275.81;5043707;28;20046;-72
2022/06/05 06:26:27;;;;;;;11.02;10.02;;;;;;;18.85;82.68;100282.56;5048932;28;20045;-70
2022/06/05 06:28:54;;;;;;;11.95;10.95;;;;;;;18.77;84.28;100260.88;5048783;28;20044;-71
2022/06/05 06:31:21;;;;;;;12.45;11.13;;;;;;;18.60;86.01;100245.31;5046260;28;20122;-73
2022/06/05 06:33:48;;;;;;;12.02;10.95;;;;;;;18.40;86.80;100226.34;5021115;28;20076;-74
2022/06/05 06:36:17;;;;;;;12.93;11.65;;;;;;;18.30;88.34;100214.66;5048749;28;20057;-73
2022/06/05 06:39:04;;;;;;;12.20;10.98;;;;;;;18.11;89.97;100199.22;5047635;28;20551;-73
2022/06/05 06:41:31;;;;;;;13.15;11.85;;;;;;;17.98;90.86;100187.78;5046413;28;20098;-74
2022/06/05 06:43:58;;;;;;;14.40;12.00;;;;;;;17.94;91.70;100191.72;5047066;28;20049;-73
2022/06/05 06:46:25;;;;;;;13.00;11.90;;;;;;;17.98;92.53;100190.47;5046828;28;20053;-73
2022/06/05 06:48:51;;;;;;;13.77;12.27;;;;;;;18.04;92.34;100187.31;5041914;28;20063;-75
2022/06/05 06:51:18;;;;;;;13.63;12.38;;;;;;;17.96;92.05;100168.31;5044236;28;20119;-72
2022/06/05 06:53:45;;;;;;;12.82;11.75;;;;;;;18.14;92.52;100190.09;5043172;28;20064;-72
2022/06/05 06:56:18;;;;;;;13.43;12.13;;;;;;;18.19;91.13;100190.56;5044845;28;20072;-76
2022/06/05 06:58:52;;;;;;;14.32;12.93;;;;;;;18.25;91.26;100187.41;5035221;28;20049;-72
2022/06/05 07:01:18;;;;;;;13.30;12.18;;;;;;;18.32;91.20;100187.72;5042656;28;20126;-73
2022/06/05 07:03:45;;;;;;;13.82;12.52;;;;;;;18.43;90.90;100183.19;5043365;28;20049;-71
2022/06/05 07:06:14;;;;;;;15.90;12.43;;;;;;;18.60;90.78;100172.91;5028615;28;20052;-72
2022/06/05 07:08:42;;;;;;;12.77;11.77;;;;;;;18.73;89.38;100154.84;5021077;28;20069;-74
2022/06/05 07:11:11;;;;;;;14.18;12.07;;;;;;;18.89;89.21;100160.56;5023313;28;20429;-72
2022/06/05 07:13:45;;;;;;;13.13;11.93;;;;;;;19.01;88.44;100164.91;5016785;28;20406;-74
2022/06/05 07:16:12;;;;;;;12.95;11.70;;;;;;;19.25;88.35;100167.31;5026903;28;20061;-73
2022/06/05 07:18:39;;;;;;;12.77;11.48;;;;;;;19.42;85.87;100161.31;5022737;28;20051;-73
2022/06/05 07:21:15;;;;;;;11.85;10.85;;;;;;;19.54;85.53;100160.25;5023515;28;20112;-72
2022/06/05 07:23:42;;;;;;;12.93;11.85;;;;;;;19.77;84.60;100160.94;5021200;28;20061;-73
2022/06/05 07:26:12;;;;;;;11.70;10.50;;;;;;;20.02;83.98;100166.78;5022295;28;20555;-73
2022/06/05 07:28:39;;;;;;;12.15;10.98;;;;;;;20.41;83.00;100171.28;5020299;28;20115;-72
2022/06/05 07:31:07;;;;;;;12.35;11.25;;;;;;;20.72;79.60;100168.47;5022656;28;20108;-71
2022/06/05 07:33:35;;;;;;;16.55;10.60;;;;;;;20.89;79.32;100176.69;5025259;28;20081;-71
2022/06/05 07:36:07;;;;;;;13.05;11.45;;;;;;;21.07;79.05;100186.72;5028648;28;20093;-72
2022/06/05 07:38:36;;;;;;;12.57;11.55;;;;;;;21.17;77.31;100191.06;5025507;28;20054;-74
2022/06/05 07:41:04;;;;;;;12.55;11.32;;;;;;;20.93;76.07;100161.09;5023277;28;20153;-72
2022/06/05 07:43:32;;;;;;;13.13;11.90;;;;;;;20.81;77.38;100152.31;5022742;28;20140;-74
2022/06/05 07:46:05;;;;;;;12.82;11.73;;;;;;;20.61;79.31;100158.72;5024273;28;20045;-73
2022/06/05 07:48:33;;;;;;;12.68;11.38;;;;;;;20.47;80.13;100165.31;5007944;28;20083;-72
2022/06/05 07:56:45;;;;;;;12.57;11.40;;;;;;;20.28;82.08;100159.94;5024967;28;20515;-73
2022/06/05 07:59:12;;;;;;;12.40;11.32;;;;;;;20.32;82.34;100151.41;5022024;28;20076;-73
2022/06/05 08:01:58;;;;;;;12.73;11.52;;;;;;;20.22;81.11;100145.19;5027275;28;20049;-71
2022/06/05 08:04:26;;;;;;;12.10;10.68;;;;;;;20.42;79.00;100167.63;5024934;28;20057;-74
2022/06/05 08:06:55;;;;;;;11.75;10.77;;;;;;;20.58;78.80;100177.81;5007375;28;20061;-72
2022/06/05 08:09:22;;;;;;;12.43;11.20;;;;;;;20.74;77.29;100194.25;5002977;28;20828;-72
2022/06/05 08:11:49;;;;;;;11.57;10.38;;;;;;;20.93;77.55;100183.47;4998559;28;20058;-72
2022/06/05 08:14:16;;;;;;;11.30;10.27;;;;;;;21.08;76.89;100177.66;5005114;28;20074;-71
2022/06/05 08:16:44;;;;;;;10.77;9.88;;;;;;;21.13;76.13;100170.81;5002296;28;20117;-72
2022/06/05 08:19:13;;;;;;;12.98;11.77;;;;;;;21.20;75.41;100168.44;5004506;28;20046;-72
2022/06/05 08:21:41;;;;;;;11.23;10.23;;;;;;;21.32;75.57;100162.72;5004008;28;20486;-73
2022/06/05 08:24:08;;;;;;;10.60;9.70;;;;;;;21.34;74.78;100144.56;5002310;28;20080;-71
2022/06/05 08:26:36;;;;;;;10.25;9.38;;;;;;;21.47;73.96;100156.84;4986544;28;20064;-74
2022/06/05 08:29:03;;;;;;;11.43;10.43;;;;;;;21.44;73.38;100163.38;5010147;28;20065;-71
2022/06/05 08:31:30;;;;;;;11.20;10.20;;;;;;;21.33;72.21;100161.72;5003881;28;20124;-72
2022/06/05 08:33:57;;;;;;;11.30;10.30;;;;;;;21.09;72.70;100149.72;5007276;28;20046;-71
2022/06/05 08:36:25;;;;;;;10.65;9.65;;;;;;;21.07;74.09;100168.72;4998024;28;20129;-71
2022/06/05 08:41:59;;;;;;;10.32;9.43;;;;;;;20.81;75.93;100176.53;5001286;28;20136;-71
2022/06/05 08:44:43;;;;;;;11.95;10.10;;;;;;;20.77;75.63;100183.22;4989967;28;20129;-72
2022/06/05 08:47:22;;;;;;;11.25;10.18;;;;;;;20.65;76.13;100169.03;4995721;28;20057;-74
2022/06/05 08:50:08;;;;;;;9.68;8.88;;;;;;;20.65;75.84;100176.25;4999808;28;20062;-72
2022/06/05 08:52:56;;;;;;;10.88;9.88;;;;;;;20.58;77.33;100162.53;5001140;28;20054;-72
2022/06/05 08:55:28;;;;;;;10.80;9.90;;;;;;;20.55;77.62;100173.56;5001513;28;20474;-74
2022/06/05 08:58:04;;;;;;;10.70;9.60;;;;;;;20.57;76.81;100178.81;5006047;28;20094;-72
2022/06/05 09:00:45;;;;;;;10.38;9.57;;;;;;;20.54;75.60;100179.09;5001827;28;20470;-73
2022/06/05 09:03:31;;;;;;;10.82;9.82;;;;;;;20.68;75.39;100192.09;5009481;28;20148;-72
2022/06/05 09:06:09;;;;;;;10.98;9.98;;;;;;;20.66;75.63;100173.41;4971954;28;1184658;-75
2022/06/05 09:08:40;;;;;;;11.82;10.82;;;;;;;20.90;74.81;100190.97;5025732;28;20057;-71
2022/06/05 09:11:15;;;;;;;11.18;10.27;;;;;;;20.88;75.35;100174.13;5026096;28;20147;-70
2022/06/05 09:13:56;;;;;;;11.05;10.05;;;;;;;21.02;74.46;100189.81;5021406;28;20073;-71
2022/06/05 09:16:29;;;;;;;11.27;10.27;;;;;;;21.04;74.54;100197.75;5027272;28;20049;-70
2022/06/05 09:18:58;;;;;;;13.13;11.60;;;;;;;20.79;75.20;100201.88;5027840;28;20560;-73
2022/06/05 09:21:39;;;;;;;12.40;11.25;;;;;;;20.54;76.41;100203.28;5026318;28;20049;-72
2022/06/05 09:24:18;;;;;;;12.18;10.80;;;;;;;20.39;77.15;100205.53;5026066;28;20116;-71
2022/06/05 09:27:10;;;;;;;11.30;10.05;;;;;;;20.49;76.31;100198.31;5026525;28;20099;-71
2022/06/05 09:29:43;;;;;;;10.85;9.80;;;;;;;20.56;75.59;100195.94;5028703;28;20064;-71
2022/06/05 09:32:15;;;;;;;10.40;9.50;;;;;;;20.67;75.15;100193.94;5022155;28;20440;-71
2022/06/05 09:34:53;;;;;;;11.98;10.75;;;;;;;20.83;74.90;100204.16;5025212;28;20508;-71
2022/06/05 09:37:43;;;;;;;11.05;10.05;;;;;;;20.98;74.51;100202.72;5021440;28;20140;-71
2022/06/05 09:40:33;;;;;;;11.32;10.23;;;;;;;21.12;74.29;100204.13;5029225;28;20060;-72
2022/06/05 09:43:37;;;;;;;11.32;10.32;;;;;;;21.17;74.31;100206.38;5011544;28;20049;-71
2022/06/05 09:46:42;;;;;;;11.50;10.40;;;;;;;21.23;73.53;100205.84;5027394;28;20079;-70
2022/06/05 09:49:14;;;;;;;10.93;9.93;;;;;;;21.27;72.70;100194.63;5024150;28;20137;-70
2022/06/05 09:51:43;;;;;;;9.25;8.45;;;;;;;21.33;73.01;100196.75;5023981;28;20366;-73
2022/06/05 09:54:16;;;;;;;9.68;8.82;;;;;;;21.44;71.61;100195.72;5023459;28;20052;-74
2022/06/05 10:00:26;;;;;;;10.90;9.05;;;;;;;21.67;70.14;100180.03;5029930;28;20068;-71
2022/06/05 10:02:59;;;;;;;9.68;8.95;;;;;;;21.79;69.77;100189.63;5023485;28;20057;-71
2022/06/05 10:05:35;;;;;;;9.10;8.20;;;;;;;21.93;68.49;100189.13;5024426;28;20489;-71
2022/06/05 10:08:19;;;;;;;9.05;8.27;;;;;;;22.08;68.00;100181.41;5005861;28;20116;-72
2022/06/05 10:10:49;;;;;;;9.98;9.15;;;;;;;22.00;68.26;100184.88;5007967;28;20502;-71
2022/06/05 10:13:24;;;;;;;9.77;8.93;;;;;;;22.07;67.68;100178.88;5013904;28;20144;-75
2022/06/05 10:16:04;;;;;;;10.98;9.30;;;;;;;22.19;68.34;100158.81;5010841;28;20091;-72
2022/06/05 10:18:51;;;;;;;9.40;8.50;;;;;;;22.35;66.53;100153.59;5006806;28;20080;-71
2022/06/05 10:21:21;;;;;;;10.32;8.32;;;;;;;22.54;65.75;100152.56;5004294;28;20042;-70
2022/06/05 10:23:55;;;;;;;9.30;8.50;;;;;;;22.73;65.53;100150.56;5008407;28;20085;-70
2022/06/05 10:26:33;;;;;;;8.85;8.10;;;;;;;22.99;65.13;100139.81;5013636;28;20130;-71
2022/06/05 10:29:18;;;;;;;8.40;7.70;;;;;;;23.27;63.52;100137.84;5010645;28;20164;-74
2022/06/05 10:31:51;;;;;;;10.48;9.57;;;;;;;23.26;61.79;100119.91;5009392;28;20057;-72
2022/06/05 10:34:30;;;;;;;9.40;8.60;;;;;;;23.09;62.55;100118.97;5006469;28;20067;-72
2022/06/05 10:37:20;;;;;;;9.70;8.85;;;;;;;23.03;62.22;100118.75;5001668;28;20414;-70
2022/06/05 10:40:01;;;;;;;9.95;8.90;;;;;;;22.96;62.33;100096.94;5004585;28;20049;-72
2022/06/05 10:42:32;;;;;;;9.45;8.55;;;;;;;23.31;61.93;100122.13;5007197;28;20058;-73
2022/06/05 10:45:15;;;;;;;9.32;8.40;;;;;;;23.70;60.13;100120.66;5008974;28;20490;-70
2022/06/05 10:47:53;;;;;;;8.88;7.82;;;;;;;23.99;59.54;100117.56;5008028;28;20054;-70
2022/06/05 10:50:28;;;;;;;9.32;8.52;;;;;;;24.23;58.03;100129.47;5004589;28;20139;-72
2022/06/05 10:53:17;;;;;;;9.65;8.75;;;;;;;24.27;58.88;100126.28;5011009;28;20089;-71
2022/06/05 10:56:13;;;;;;;9.20;8.35;;;;;;;24.53;57.52;100125.31;5008393;28;20046;-70
2022/06/05 10:59:20;;;;;;;9.32;8.50;;;;;;;24.44;57.92;100129.84;5009164;28;20041;-71
2022/06/05 11:02:23;;;;;;;9.40;8.60;;;;;;;24.42;57.69;100123.75;5003897;28;20100;-73
2022/06/05 11:05:10;;;;;;;9.55;8.65;;;;;;;24.30;57.50;100116.97;5007780;28;20050;-72
2022/06/05 11:08:03;;;;;;;9.70;8.85;;;;;;;24.12;57.23;100109.81;5025913;28;20045;-71
2022/06/05 11:13:43;;;;;;;9.85;9.00;;;;;;;24.02;58.86;100117.22;5025674;28;20131;-70
2022/06/05 11:16:20;;;;;;;8.90;8.10;;;;;;;24.17;59.79;100105.75;5025588;28;20228;-68
2022/06/05 11:19:10;;;;;;;9.00;8.23;;;;;;;24.18;58.35;100108.31;5024016;28;20053;-72
2022/06/05 11:21:41;;;;;;;8.90;8.20;;;;;;;24.22;57.78;100109.66;5020743;28;20418;-71
2022/06/05 11:24:18;;;;;;;8.50;7.80;;;;;;;24.23;57.93;100105.09;5024156;28;20103;-73
2022/06/05 11:27:00;;;;;;;8.55;7.85;;;;;;;24.13;57.91;100081.75;5020410;28;20057;-73
2022/06/05 11:29:39;;;;;;;8.70;7.90;;;;;;;24.14;57.65;100099.66;5024413;28;20490;-71
2022/06/05 11:32:30;;;;;;;9.70;8.40;;;;;;;24.00;58.61;100103.03;5021193;28;20856;-72
2022/06/05 11:35:12;;;;;;;9.55;8.57;;;;;;;23.95;58.98;100115.34;5023285;28;20135;-69
2022/06/05 11:37:49;;;;;;;9.35;8.55;;;;;;;23.63;59.50;100092.59;5015943;28;20111;-70
2022/06/05 11:40:31;;;;;;;8.93;8.13;;;;;;;23.62;60.65;100108.97;5019668;28;20533;-71
2022/06/05 11:43:24;;;;;;;8.23;7.63;;;;;;;23.70;60.88;100109.00;5019211;28;20104;-73
2022/06/05 11:46:32;;;;;;;9.93;9.07;;;;;;;23.68;60.25;100103.75;5025352;28;20054;-71
2022/06/05 11:49:24;;;;;;;9.63;8.80;;;;;;;23.66;59.90;100111.19;5026045;28;20107;-70
2022/06/05 11:52:03;;;;;;;10.02;9.02;;;;;;;23.45;60.69;100089.13;5009864;28;20064;-71
2022/06/05 11:54:42;;;;;;;8.80;8.02;;;;;;;23.40;61.40;100097.69;5022919;28;20508;-72
2022/06/05 11:57:21;;;;;;;8.40;7.60;;;;;;;23.31;62.19;100087.00;5026122;28;20142;-70
2022/06/05 11:59:55;;;;;;;8.75;8.05;;;;;;;23.34;61.81;100101.03;5027457;28;20064;-71
2022/06/05 12:02:38;;;;;;;8.40;7.60;;;;;;;23.39;61.68;100101.41;5020644;28;20103;-72
2022/06/05 12:05:35;;;;;;;8.63;7.82;;;;;;;23.40;61.29;100108.50;5027804;28;20057;-74
2022/06/05 12:08:11;;;;;;;9.43;8.60;;;;;;;23.29;62.11;100103.41;5012651;28;20077;-71
2022/06/05 12:10:53;;;;;;;9.80;8.88;;;;;;;23.24;63.05;100100.31;5027336;28;20053;-69